Onega, Russia
Current Conditions -  °F | °C
As of 7:30 AM on Saturday 29 Nov 2014 (Local Time) from ULAA Reporting Station
Snow Showers Snow Showers  
Wind Chill: 24°   Ceiling: 1000
Heat Index: 32°   Visibility: 3mi
Dew Point: 30°   Wind: 9mph
Humidity: 93%   Direction: 260°W
Pressure: 30.39"   Gusts: 16mph
Location:  63.92°N, 38.08°E
Report Text: ULAA 290430Z 26004G07MPS 230V290 5000 -SHSN OVC010CB M00/M01 Q1029 NOSIG RMK QFE770/1027 SC043
Loading
Personal Weather Stations






























Interactive Weather Map New forecast layout! Learn more

10-Day Weather Forecast

Advertisements
Track Severe Weather on mobile